Time;durP1;ratioP1;P1;durP2;ratioP2;P2;SDS_P1;SDS_P2;PMS_P1;PMS_P2;Temp;Humidity;BMP_temperature;BMP_pressure;BME280_temperature;BME280_humidity;BME280_pressure;Samples;Min_cycle;Max_cycle;Signal;HPM_P1;HPM_P2
2022/08/21 00:01:27;;;;;;;11.25;4.40;;;;;;;22.43;61.57;100554.60;1752281;81;26572;-54
2022/08/21 00:03:55;;;;;;;13.25;4.80;;;;;;;22.40;61.52;100561.06;1752310;81;32875;-56
2022/08/21 00:06:23;;;;;;;18.70;4.97;;;;;;;22.36;61.52;100564.74;1752405;81;28193;-55
2022/08/21 00:08:53;;;;;;;15.32;5.30;;;;;;;22.35;61.65;100557.58;1752042;81;25720;-55
2022/08/21 00:11:20;;;;;;;19.10;5.00;;;;;;;22.30;61.59;100560.97;1752083;81;26214;-55
2022/08/21 00:13:48;;;;;;;14.38;4.33;;;;;;;22.23;61.80;100554.70;1752271;81;25800;-54
2022/08/21 00:16:15;;;;;;;12.53;4.40;;;;;;;22.22;61.84;100554.89;1752602;81;25780;-56
2022/08/21 00:18:42;;;;;;;11.60;4.60;;;;;;;22.20;61.76;100555.95;1751337;81;27507;-55
2022/08/21 00:21:12;;;;;;;16.45;4.37;;;;;;;22.17;61.78;100553.67;1735139;82;25880;-54
2022/08/21 00:23:40;;;;;;;13.93;4.90;;;;;;;22.18;61.94;100557.23;1738839;81;25717;-56
2022/08/21 00:26:08;;;;;;;8.40;4.50;;;;;;;22.11;62.53;100555.89;1752087;81;25757;-55
2022/08/21 00:28:35;;;;;;;9.88;4.25;;;;;;;22.04;62.39;100557.83;1752171;81;25828;-56
2022/08/21 00:31:05;;;;;;;10.48;3.50;;;;;;;22.05;62.84;100549.92;1749991;81;27499;-56
2022/08/21 00:33:33;;;;;;;11.63;4.22;;;;;;;22.02;64.15;100551.20;1749860;81;25862;-54
2022/08/21 00:36:01;;;;;;;10.68;4.03;;;;;;;21.92;63.78;100550.00;1749839;81;25692;-54
2022/08/21 00:38:28;;;;;;;13.28;4.50;;;;;;;21.91;63.77;100549.68;1749864;81;25826;-55
2022/08/21 00:40:59;;;;;;;11.93;3.80;;;;;;;21.91;63.45;100552.42;1749914;81;25730;-54
2022/08/21 00:43:32;;;;;;;10.53;3.60;;;;;;;21.80;63.69;100553.41;1749844;81;27642;-55
2022/08/21 00:46:00;;;;;;;14.90;4.75;;;;;;;21.82;64.06;100548.56;1749713;81;25937;-55
2022/08/21 00:48:28;;;;;;;5.85;3.90;;;;;;;21.82;64.29;100547.70;1749772;81;25656;-54
2022/08/21 00:51:03;;;;;;;7.65;4.20;;;;;;;21.82;64.29;100549.06;1749816;81;25776;-55
2022/08/21 00:53:32;;;;;;;12.20;4.15;;;;;;;21.85;64.46;100548.65;1749733;81;25761;-54
2022/08/21 00:56:03;;;;;;;10.18;4.10;;;;;;;21.88;64.62;100546.31;1749837;81;27444;-55
2022/08/21 00:58:32;;;;;;;17.55;4.15;;;;;;;21.92;64.98;100545.34;1749503;81;25696;-55
2022/08/21 01:01:02;;;;;;;12.25;4.53;;;;;;;21.96;64.64;100538.91;1749851;81;25693;-55
2022/08/21 01:03:29;;;;;;;14.80;4.15;;;;;;;21.99;64.61;100537.94;1749755;81;25855;-54
2022/08/21 01:05:56;;;;;;;13.65;4.60;;;;;;;22.03;64.52;100536.45;1749916;81;26145;-55
2022/08/21 01:08:23;;;;;;;6.78;3.85;;;;;;;22.08;64.46;100534.95;1728894;81;27484;-54
2022/08/21 01:10:53;;;;;;;13.32;4.75;;;;;;;22.13;64.38;100527.75;1749736;81;26715;-55
2022/08/21 01:13:24;;;;;;;12.47;3.87;;;;;;;22.09;64.11;100530.64;1749592;81;25736;-55
2022/08/21 01:15:56;;;;;;;11.97;4.62;;;;;;;22.07;63.88;100527.27;1750113;81;26506;-54
2022/08/21 01:18:23;;;;;;;8.78;4.12;;;;;;;22.07;63.79;100530.02;1750405;81;25718;-54
2022/08/21 01:21:04;;;;;;;7.15;4.05;;;;;;;22.06;63.56;100528.33;1736454;81;28246;-55
2022/08/21 01:23:32;;;;;;;11.05;4.65;;;;;;;22.01;63.52;100530.34;1734812;81;26185;-55
2022/08/21 01:25:59;;;;;;;10.28;4.40;;;;;;;21.92;63.38;100519.33;1726607;83;26521;-52
2022/08/21 01:28:30;;;;;;;11.88;4.42;;;;;;;21.88;63.61;100521.67;1726576;83;25936;-55
2022/08/21 01:30:58;;;;;;;13.30;5.17;;;;;;;21.84;63.73;100525.05;1728926;81;25918;-55
2022/08/21 01:33:25;;;;;;;15.85;4.70;;;;;;;21.76;63.99;100526.13;1729060;82;27540;-53
2022/08/21 01:35:52;;;;;;;17.48;4.62;;;;;;;21.72;64.14;100526.27;1728667;81;26073;-54
2022/08/21 01:38:19;;;;;;;20.20;4.47;;;;;;;21.63;64.99;100515.24;1728687;82;25772;-55
2022/08/21 01:40:47;;;;;;;16.05;4.97;;;;;;;21.57;64.93;100508.70;1728581;82;26752;-55
2022/08/21 01:43:14;;;;;;;13.60;4.87;;;;;;;21.55;65.18;100518.50;1728681;82;26348;-54
2022/08/21 01:45:41;;;;;;;12.45;4.50;;;;;;;21.49;65.37;100526.19;1728774;82;27659;-53
2022/08/21 01:48:08;;;;;;;14.93;4.80;;;;;;;21.40;65.79;100522.00;1728595;82;25741;-55
2022/08/21 01:50:36;;;;;;;16.97;4.30;;;;;;;21.41;66.20;100521.80;1728530;82;25811;-54
2022/08/21 01:53:04;;;;;;;19.32;4.58;;;;;;;21.46;66.15;100521.67;1728663;82;25776;-55
2022/08/21 01:55:31;;;;;;;12.28;4.15;;;;;;;21.49;66.27;100513.88;1748829;81;25814;-54
2022/08/21 01:57:59;;;;;;;12.10;4.62;;;;;;;21.53;66.26;100517.02;1752189;81;27545;-55
2022/08/21 02:00:27;;;;;;;17.65;5.00;;;;;;;21.57;66.27;100519.65;1752020;81;25731;-55
2022/08/21 02:02:55;;;;;;;16.25;4.15;;;;;;;21.57;66.16;100517.73;1752223;81;25957;-54
2022/08/21 02:05:22;;;;;;;14.00;4.12;;;;;;;21.58;66.53;100512.61;1752052;81;25796;-55
2022/08/21 02:07:52;;;;;;;16.10;4.00;;;;;;;21.61;66.33;100518.17;1752427;81;26130;-55
2022/08/21 02:10:26;;;;;;;12.50;5.10;;;;;;;21.65;66.29;100511.77;1752164;81;27574;-55
2022/08/21 02:12:55;;;;;;;11.38;4.37;;;;;;;21.67;66.27;100517.84;1752433;81;25752;-55
2022/08/21 02:15:22;;;;;;;18.00;4.42;;;;;;;21.67;66.47;100513.73;1752405;81;25977;-55
2022/08/21 02:17:54;;;;;;;11.65;4.30;;;;;;;21.61;66.54;100510.50;1752177;81;25806;-55
2022/08/21 02:20:29;;;;;;;14.50;3.62;;;;;;;21.58;66.29;100516.72;1758206;81;26184;-55
2022/08/21 02:22:56;;;;;;;12.90;4.30;;;;;;;21.51;66.24;100521.34;1754752;81;27535;-55
2022/08/21 02:25:26;;;;;;;18.60;4.42;;;;;;;21.43;66.35;100518.30;1729608;81;25724;-55
2022/08/21 02:27:54;;;;;;;13.20;3.80;;;;;;;21.39;66.29;100508.00;1728891;82;26019;-54
2022/08/21 02:30:31;;;;;;;14.23;4.20;;;;;;;21.38;66.12;100511.82;1737307;82;26504;-56
2022/08/21 02:32:59;;;;;;;6.35;3.92;;;;;;;21.40;66.26;100508.31;1748050;80;26000;-56
2022/08/21 02:35:27;;;;;;;11.33;4.42;;;;;;;21.42;66.18;100510.31;1747901;80;27704;-55
2022/08/21 02:37:59;;;;;;;14.40;3.75;;;;;;;21.42;66.16;100508.95;1748059;82;25802;-55
2022/08/21 02:40:30;;;;;;;14.03;4.72;;;;;;;21.40;66.13;100506.95;1763148;81;25779;-53
2022/08/21 02:42:59;;;;;;;7.75;4.20;;;;;;;21.35;66.05;100505.40;1767268;81;25982;-53
2022/08/21 02:45:28;;;;;;;13.22;4.30;;;;;;;21.28;66.38;100510.88;1767330;79;25873;-54
2022/08/21 02:47:59;;;;;;;19.00;4.33;;;;;;;21.18;66.37;100507.73;1767631;81;28163;-55
2022/08/21 02:50:31;;;;;;;13.62;4.35;;;;;;;21.13;66.36;100507.00;1767226;81;25680;-55
2022/08/21 02:52:59;;;;;;;16.87;4.58;;;;;;;21.08;66.48;100509.01;1767461;79;25792;-55
2022/08/21 02:55:30;;;;;;;14.47;4.20;;;;;;;21.05;66.68;100499.88;1745933;81;25941;-54
2022/08/21 02:57:59;;;;;;;8.05;3.95;;;;;;;21.03;66.78;100503.34;1726070;82;25736;-55
2022/08/21 03:00:29;;;;;;;9.53;4.03;;;;;;;20.94;68.29;100501.88;1747446;81;27450;-55
2022/08/21 03:02:58;;;;;;;13.62;4.47;;;;;;;20.84;67.85;100500.95;1773518;80;25930;-54
2022/08/21 03:05:28;;;;;;;8.93;3.70;;;;;;;20.80;68.05;100499.68;1771770;81;25694;-54
2022/08/21 03:07:55;;;;;;;14.65;4.70;;;;;;;20.76;68.27;100495.16;1771441;81;25788;-52
2022/08/21 03:10:23;;;;;;;9.38;4.15;;;;;;;20.75;68.64;100494.84;1771443;81;25866;-54
2022/08/21 03:12:50;;;;;;;7.97;4.15;;;;;;;20.67;69.55;100499.13;1771621;81;27482;-54
2022/08/21 03:15:20;;;;;;;7.60;3.75;;;;;;;20.62;68.96;100495.66;1771393;81;25985;-55
2022/08/21 03:17:48;;;;;;;13.32;4.30;;;;;;;20.62;69.39;100495.66;1771533;81;25702;-55
2022/08/21 03:20:20;;;;;;;9.40;3.75;;;;;;;20.62;68.96;100494.80;1776497;79;26841;-55
2022/08/21 03:22:46;;;;;;;16.60;4.60;;;;;;;20.66;69.03;100500.72;1817432;78;25849;-55
2022/08/21 03:25:14;;;;;;;11.48;3.92;;;;;;;20.66;69.02;100500.72;1772709;78;27047;-55
2022/08/21 03:27:41;;;;;;;10.28;4.03;;;;;;;20.69;68.99;100506.59;1766821;81;25622;-55
2022/08/21 03:30:10;;;;;;;8.63;3.90;;;;;;;20.68;68.75;100509.02;1766832;80;25938;-55
2022/08/21 03:32:37;;;;;;;9.50;4.20;;;;;;;20.71;68.99;100518.67;1766656;81;26863;-55
2022/08/21 03:35:05;;;;;;;7.58;3.85;;;;;;;20.73;68.82;100527.01;1766933;81;25521;-55
2022/08/21 03:37:32;;;;;;;12.30;3.77;;;;;;;20.72;68.72;100538.95;1766880;81;27623;-55
2022/08/21 03:40:00;;;;;;;7.33;3.77;;;;;;;20.71;69.10;100535.91;1766757;81;25798;-54
2022/08/21 03:42:27;;;;;;;18.45;4.20;;;;;;;20.67;69.29;100540.62;1767072;79;25472;-55
2022/08/21 03:44:54;;;;;;;15.55;3.98;;;;;;;20.67;69.17;100542.00;1766882;81;26489;-55
2022/08/21 03:47:21;;;;;;;13.15;3.90;;;;;;;20.72;69.29;100550.43;1766997;80;25754;-55
2022/08/21 03:49:49;;;;;;;11.22;3.80;;;;;;;20.76;69.12;100551.20;1766790;81;28073;-55
2022/08/21 03:52:17;;;;;;;8.58;3.85;;;;;;;20.76;69.00;100558.03;1766625;79;25707;-54
2022/08/21 03:54:46;;;;;;;5.08;3.50;;;;;;;20.80;68.96;100554.35;1792844;79;25752;-55
2022/08/21 03:57:14;;;;;;;10.95;3.90;;;;;;;20.85;69.00;100553.73;1810145;79;25875;-54
2022/08/21 03:59:42;;;;;;;10.78;3.67;;;;;;;20.92;69.11;100558.16;1810073;79;25792;-54
2022/08/21 04:02:11;;;;;;;8.28;3.90;;;;;;;20.98;68.99;100550.98;1810127;79;27537;-55
2022/08/21 04:04:37;;;;;;;9.05;3.83;;;;;;;21.01;68.70;100551.94;1841839;77;25779;-55
2022/08/21 04:07:04;;;;;;;8.80;4.00;;;;;;;21.00;68.58;100557.62;1842460;77;25676;-54
2022/08/21 04:09:31;;;;;;;9.83;3.62;;;;;;;21.00;68.70;100554.89;1842519;77;26271;-54
2022/08/21 04:12:00;;;;;;;11.80;4.40;;;;;;;21.01;68.83;100558.77;1836602;77;25631;-55
2022/08/21 04:14:27;;;;;;;7.42;4.03;;;;;;;21.02;68.53;100557.72;1833731;78;27521;-55
2022/08/21 04:16:54;;;;;;;8.05;4.30;;;;;;;21.04;68.53;100554.26;1833516;78;26354;-53
2022/08/21 04:19:21;;;;;;;9.88;4.05;;;;;;;21.10;68.46;100555.31;1823059;78;25699;-55
2022/08/21 04:21:49;;;;;;;13.22;5.10;;;;;;;21.14;68.22;100560.66;1804926;79;25775;-55
2022/08/21 04:24:16;;;;;;;12.10;4.05;;;;;;;21.19;68.07;100558.14;1781738;79;25856;-55
2022/08/21 04:26:43;;;;;;;12.53;4.70;;;;;;;21.22;67.95;100549.50;1798793;78;29628;-55
2022/08/21 04:29:11;;;;;;;15.65;4.87;;;;;;;21.20;67.91;100555.70;1798615;79;26567;-55
2022/08/21 04:31:38;;;;;;;10.03;6.25;;;;;;;21.15;68.19;100554.14;1810995;78;25742;-54
2022/08/21 04:34:05;;;;;;;14.15;5.33;;;;;;;21.16;68.29;100560.47;1816224;78;25855;-55
2022/08/21 04:36:34;;;;;;;9.43;5.00;;;;;;;21.15;68.43;100560.14;1803033;78;25783;-54
2022/08/21 04:39:01;;;;;;;8.40;5.33;;;;;;;21.14;68.45;100553.81;1798934;79;27452;-55
2022/08/21 04:41:28;;;;;;;7.55;4.40;;;;;;;21.17;68.49;100562.98;1798925;79;26477;-55
2022/08/21 04:43:56;;;;;;;8.63;4.50;;;;;;;21.09;68.35;100556.36;1799009;79;25758;-55
2022/08/21 04:46:23;;;;;;;14.07;5.67;;;;;;;21.03;68.91;100553.94;1798930;78;25828;-55
2022/08/21 04:48:50;;;;;;;12.03;4.40;;;;;;;21.07;69.12;100552.98;1799122;79;25820;-56
2022/08/21 04:51:25;;;;;;;13.00;4.78;;;;;;;21.14;69.82;100558.46;1799010;78;27515;-54
2022/08/21 04:53:59;;;;;;;8.90;4.80;;;;;;;21.18;70.56;100557.83;1798057;78;25770;-56
2022/08/21 04:56:32;;;;;;;12.18;4.83;;;;;;;21.21;70.05;100551.91;1795806;79;26492;-59
2022/08/21 04:59:04;;;;;;;12.28;5.53;;;;;;;21.23;70.56;100548.98;1795356;78;26476;-56
2022/08/21 05:01:37;;;;;;;11.57;5.22;;;;;;;21.24;70.58;100552.04;1793892;79;25810;-55
2022/08/21 05:04:07;;;;;;;13.83;5.53;;;;;;;21.24;70.10;100554.23;1795049;78;27547;-54
2022/08/21 05:06:37;;;;;;;12.13;5.95;;;;;;;21.26;69.82;100552.64;1795650;78;25767;-52
2022/08/21 05:09:05;;;;;;;16.05;5.08;;;;;;;21.31;69.63;100559.70;1795843;79;25806;-55
2022/08/21 05:11:33;;;;;;;11.88;4.47;;;;;;;21.39;69.58;100558.62;1795694;79;25739;-55
2022/08/21 05:14:00;;;;;;;11.40;5.30;;;;;;;21.50;69.36;100555.23;1796134;78;25818;-55
2022/08/21 05:16:29;;;;;;;14.50;4.80;;;;;;;21.58;68.84;100555.03;1795680;79;27475;-55
2022/08/21 05:18:55;;;;;;;7.35;4.80;;;;;;;21.73;68.62;100561.63;1797773;79;25782;-53
2022/08/21 05:21:22;;;;;;;15.30;5.58;;;;;;;21.89;68.58;100549.88;1771657;80;25716;-56
2022/08/21 05:23:51;;;;;;;11.48;5.30;;;;;;;21.94;67.51;100554.19;1810232;78;25744;-55
2022/08/21 05:26:18;;;;;;;13.35;6.28;;;;;;;21.99;67.41;100549.44;1810213;79;25694;-56
2022/08/21 05:28:45;;;;;;;17.95;6.80;;;;;;;22.10;67.18;100554.75;1771460;80;27506;-54
2022/08/21 05:31:11;;;;;;;13.28;5.15;;;;;;;22.21;66.69;100548.59;1807338;78;25707;-56
2022/08/21 05:33:38;;;;;;;12.53;4.87;;;;;;;22.36;66.08;100546.92;1764741;81;25716;-56
2022/08/21 05:36:06;;;;;;;10.40;4.50;;;;;;;22.51;65.73;100550.23;1766434;81;25827;-55
2022/08/21 05:38:33;;;;;;;10.72;4.67;;;;;;;22.63;65.00;100548.98;1766508;79;25831;-55
2022/08/21 05:41:01;;;;;;;9.68;4.95;;;;;;;22.74;64.77;100544.67;1766622;80;27464;-55
2022/08/21 05:43:30;;;;;;;12.82;4.70;;;;;;;22.87;64.51;100548.39;1766457;81;25774;-55
2022/08/21 05:45:57;;;;;;;8.38;4.00;;;;;;;22.97;63.50;100550.09;1766496;80;25723;-56
2022/08/21 05:48:25;;;;;;;9.55;4.42;;;;;;;23.01;63.40;100554.05;1766665;81;26495;-54
2022/08/21 05:50:54;;;;;;;15.55;4.70;;;;;;;23.10;63.23;100552.70;1766352;81;25806;-54
2022/08/21 05:53:23;;;;;;;11.80;4.30;;;;;;;23.23;63.19;100550.41;1766452;81;27480;-55
2022/08/21 05:55:51;;;;;;;8.35;3.85;;;;;;;23.34;63.15;100548.84;1766659;81;25751;-55
2022/08/21 05:58:23;;;;;;;9.63;4.37;;;;;;;23.51;62.99;100544.95;1766398;79;26175;-55
2022/08/21 06:00:56;;;;;;;12.40;4.40;;;;;;;23.65;62.38;100547.02;1766653;81;25846;-55
2022/08/21 06:03:28;;;;;;;10.70;4.62;;;;;;;23.76;62.24;100537.16;1765962;81;26138;-56
2022/08/21 06:05:55;;;;;;;8.95;4.78;;;;;;;23.88;61.23;100540.83;1765690;81;27274;-55
2022/08/21 06:08:23;;;;;;;9.85;4.53;;;;;;;23.94;60.79;100537.73;1766395;81;25861;-56
2022/08/21 06:10:52;;;;;;;9.55;4.28;;;;;;;24.01;60.51;100530.78;1743961;81;25826;-55
2022/08/21 06:13:20;;;;;;;12.05;4.12;;;;;;;24.10;60.77;100538.16;1764389;81;25875;-54
2022/08/21 06:15:48;;;;;;;12.33;3.67;;;;;;;24.22;60.03;100537.68;1766285;80;25726;-55
2022/08/21 06:18:16;;;;;;;12.80;4.45;;;;;;;24.33;60.08;100536.89;1766589;81;27485;-54
2022/08/21 06:20:43;;;;;;;13.43;3.83;;;;;;;24.45;59.08;100531.95;1764796;81;25917;-55
2022/08/21 06:23:10;;;;;;;13.80;3.87;;;;;;;24.50;58.80;100530.72;1718178;83;25742;-55
2022/08/21 06:25:39;;;;;;;11.73;4.28;;;;;;;24.60;59.04;100541.14;1739949;82;26571;-56
2022/08/21 06:28:10;;;;;;;13.48;3.98;;;;;;;24.74;59.03;100539.05;1729602;82;26072;-54
2022/08/21 06:30:39;;;;;;;9.30;3.72;;;;;;;24.87;58.60;100542.12;1782824;79;27529;-56
2022/08/21 06:33:07;;;;;;;18.92;9.03;;;;;;;24.95;58.42;100539.87;1782759;79;25855;-54
2022/08/21 06:35:35;;;;;;;22.87;10.43;;;;;;;25.06;58.20;100545.59;1782922;79;25732;-55
2022/08/21 06:38:03;;;;;;;10.48;4.42;;;;;;;25.17;58.05;100535.13;1782988;80;26433;-53
2022/08/21 06:40:31;;;;;;;11.10;4.17;;;;;;;25.34;58.02;100537.16;1782954;80;25855;-55
2022/08/21 06:43:00;;;;;;;17.92;4.97;;;;;;;25.51;57.04;100534.55;1782954;80;27467;-55
2022/08/21 06:45:27;;;;;;;13.78;4.78;;;;;;;25.62;57.03;100527.64;1782154;80;25768;-55
2022/08/21 06:47:54;;;;;;;19.12;5.95;;;;;;;25.72;56.97;100537.20;1782898;79;25780;-55
2022/08/21 06:50:21;;;;;;;15.05;5.70;;;;;;;25.81;56.30;100537.12;1782728;79;26652;-55
2022/08/21 06:52:49;;;;;;;9.95;4.45;;;;;;;25.84;56.19;100534.41;1782641;80;26519;-54
2022/08/21 06:55:16;;;;;;;15.13;4.33;;;;;;;25.88;55.93;100535.61;1786771;78;27511;-54
2022/08/21 06:57:45;;;;;;;10.48;4.62;;;;;;;25.94;55.47;100540.98;1787286;80;25992;-55
2022/08/21 07:00:13;;;;;;;9.63;4.12;;;;;;;25.98;55.64;100540.48;1787898;80;26459;-55
2022/08/21 07:02:40;;;;;;;13.62;4.12;;;;;;;26.09;55.83;100541.84;1787719;80;25775;-56
2022/08/21 07:05:08;;;;;;;15.80;4.15;;;;;;;26.21;55.44;100539.59;1787031;79;25731;-55
2022/08/21 07:07:35;;;;;;;10.75;4.35;;;;;;;26.30;54.98;100546.94;1787780;80;27613;-55
2022/08/21 07:10:02;;;;;;;9.35;4.58;;;;;;;26.40;54.63;100547.95;1787962;80;25861;-55
2022/08/21 07:12:31;;;;;;;14.23;4.10;;;;;;;26.50;54.45;100545.91;1787653;80;25846;-56
2022/08/21 07:14:58;;;;;;;15.68;5.28;;;;;;;26.62;54.34;100546.39;1787782;80;25847;-56
2022/08/21 07:17:24;;;;;;;10.55;3.83;;;;;;;26.69;54.10;100543.78;1787796;79;25733;-56
2022/08/21 07:19:51;;;;;;;15.58;4.80;;;;;;;26.79;53.21;100548.66;1795937;79;27440;-53
2022/08/21 07:22:20;;;;;;;11.35;4.35;;;;;;;26.84;53.38;100550.66;1774876;80;25878;-56
2022/08/21 07:24:47;;;;;;;10.13;4.15;;;;;;;26.90;53.26;100550.20;1805674;78;26420;-55
2022/08/21 07:27:14;;;;;;;12.78;4.60;;;;;;;26.98;52.81;100547.02;1766816;81;25878;-55
2022/08/21 07:29:41;;;;;;;12.43;4.58;;;;;;;27.02;52.55;100539.92;1766698;81;25725;-56
2022/08/21 07:32:08;;;;;;;10.60;5.75;;;;;;;27.09;52.66;100548.87;1769144;79;27634;-56
2022/08/21 07:34:35;;;;;;;12.93;4.40;;;;;;;27.17;52.53;100540.68;1771631;80;25750;-57
2022/08/21 07:37:02;;;;;;;11.00;5.33;;;;;;;27.26;52.58;100539.16;1772182;80;25803;-56
2022/08/21 07:39:29;;;;;;;20.45;6.05;;;;;;;27.33;52.56;100531.56;1771797;80;25951;-56
2022/08/21 07:41:57;;;;;;;15.72;7.20;;;;;;;27.46;52.64;100534.53;1771906;80;51015;-55
2022/08/21 07:44:24;;;;;;;10.58;4.05;;;;;;;27.54;51.72;100526.33;1771729;80;27492;-56
2022/08/21 07:46:51;;;;;;;9.45;4.08;;;;;;;27.54;51.29;100531.85;1771622;80;25841;-57
2022/08/21 07:49:18;;;;;;;16.37;4.40;;;;;;;27.62;51.28;100533.34;1771718;80;26464;-56
2022/08/21 07:51:45;;;;;;;11.48;4.25;;;;;;;27.72;50.31;100527.95;1771683;80;26579;-55
2022/08/21 07:54:12;;;;;;;11.68;4.12;;;;;;;27.70;49.66;100525.17;1771028;80;26498;-56
2022/08/21 07:56:39;;;;;;;16.20;4.12;;;;;;;27.69;49.96;100517.97;1770008;81;28956;-56
2022/08/21 07:59:06;;;;;;;13.95;4.55;;;;;;;27.75;49.67;100512.22;1793711;79;25952;-56
2022/08/21 08:01:33;;;;;;;10.35;4.28;;;;;;;27.73;49.14;100513.05;1764065;81;25837;-57
2022/08/21 08:04:00;;;;;;;12.98;4.30;;;;;;;27.63;49.57;100512.92;1794821;79;25966;-56
2022/08/21 08:06:27;;;;;;;11.10;3.58;;;;;;;27.58;50.05;100511.45;1767660;81;25833;-56
2022/08/21 08:08:53;;;;;;;7.80;3.45;;;;;;;27.65;50.15;100505.21;1795028;79;27561;-56
2022/08/21 08:11:20;;;;;;;12.43;4.55;;;;;;;27.75;49.81;100509.45;1795348;79;25803;-56
2022/08/21 08:13:51;;;;;;;12.43;4.20;;;;;;;27.87;49.95;100507.97;1795407;79;25945;-56
2022/08/21 08:16:18;;;;;;;12.13;3.87;;;;;;;27.98;49.24;100499.77;1795353;79;25790;-56
2022/08/21 08:18:46;;;;;;;12.45;4.08;;;;;;;28.08;49.14;100500.77;1792337;79;26403;-56
2022/08/21 08:21:13;;;;;;;10.70;3.87;;;;;;;28.24;48.15;100501.73;1754781;81;27620;-56
2022/08/21 08:23:40;;;;;;;11.43;3.22;;;;;;;28.39;47.72;100495.52;1771771;79;25809;-57
2022/08/21 08:26:07;;;;;;;8.03;3.80;;;;;;;28.51;47.50;100501.44;1796921;79;25714;-55
2022/08/21 08:28:34;;;;;;;11.60;4.20;;;;;;;28.60;47.33;100493.50;1796992;79;25963;-56
2022/08/21 08:31:02;;;;;;;13.88;3.77;;;;;;;28.76;46.42;100492.55;1796871;78;25759;-55
2022/08/21 08:33:29;;;;;;;9.90;4.10;;;;;;;28.80;46.09;100488.14;1799124;78;28218;-55
2022/08/21 08:35:57;;;;;;;12.00;7.17;;;;;;;28.93;46.15;100487.41;1799529;79;26492;-57
2022/08/21 08:38:25;;;;;;;18.02;5.78;;;;;;;29.09;45.99;100491.94;1789447;79;25803;-55
2022/08/21 08:41:21;;;;;;;15.75;4.90;;;;;;;29.27;45.71;100487.06;1788792;78;25882;-56
2022/08/21 08:43:59;;;;;;;11.85;3.55;;;;;;;29.38;45.07;100486.05;1777766;80;25438;-55
2022/08/21 08:46:45;;;;;;;7.10;4.12;;;;;;;29.48;44.34;100484.72;1752601;81;27636;-55
2022/08/21 08:49:17;;;;;;;7.70;3.83;;;;;;;29.63;44.09;100490.03;1754843;80;26010;-55
2022/08/21 08:51:55;;;;;;;11.80;3.97;;;;;;;29.81;44.28;100484.00;1756457;80;25465;-56
2022/08/21 08:54:43;;;;;;;6.22;2.92;;;;;;;30.06;44.23;100482.42;1758682;81;25844;-56
2022/08/21 08:57:21;;;;;;;17.48;3.50;;;;;;;30.27;42.59;100479.12;1800565;79;25762;-56
2022/08/21 08:59:52;;;;;;;20.77;3.55;;;;;;;30.28;42.55;100473.85;1801127;79;27484;-56
2022/08/21 09:02:20;;;;;;;18.07;3.33;;;;;;;30.37;42.07;100478.85;1800520;79;25684;-56
2022/08/21 09:04:50;;;;;;;6.15;3.00;;;;;;;30.48;42.07;100476.37;1801178;79;25794;-56
2022/08/21 09:07:52;;;;;;;8.48;3.55;;;;;;;30.67;42.09;100474.45;1800692;79;25931;-56
2022/08/21 09:11:03;;;;;;;10.63;3.12;;;;;;;30.84;41.76;100472.21;1800958;79;25755;-54
2022/08/21 09:13:47;;;;;;;8.58;3.12;;;;;;;30.99;41.61;100464.95;1800790;79;28845;-55
2022/08/21 09:16:51;;;;;;;7.87;3.47;;;;;;;31.20;39.87;100465.75;1800778;79;25570;-56
2022/08/21 09:19:46;;;;;;;5.90;2.90;;;;;;;31.47;39.92;100464.01;1799777;78;25695;-56
2022/08/21 09:22:47;;;;;;;4.60;2.58;;;;;;;31.72;38.92;100458.08;1795986;79;26196;-55
2022/08/21 09:25:26;;;;;;;9.03;2.75;;;;;;;31.74;37.73;100457.23;1789652;79;25691;-56
2022/08/21 09:27:53;;;;;;;7.28;2.75;;;;;;;31.79;37.79;100460.55;1789112;80;27563;-55
2022/08/21 09:30:31;;;;;;;5.55;2.65;;;;;;;31.77;38.66;100452.50;1788777;78;25593;-55
2022/08/21 09:32:59;;;;;;;10.13;3.45;;;;;;;31.84;38.79;100457.19;1794451;78;25811;-56
2022/08/21 09:35:26;;;;;;;13.95;2.92;;;;;;;31.96;38.48;100449.05;1797180;79;25798;-55
2022/08/21 09:38:05;;;;;;;13.70;3.00;;;;;;;31.89;38.15;100449.37;1795862;79;26601;-56
2022/08/21 09:40:43;;;;;;;5.75;3.15;;;;;;;31.81;38.62;100445.23;1794907;79;27069;-56
2022/08/21 09:43:18;;;;;;;9.38;3.00;;;;;;;31.66;39.21;100446.69;1794895;79;25517;-55
2022/08/21 09:45:48;;;;;;;5.22;2.75;;;;;;;31.58;39.70;100450.06;1794687;78;25683;-56
2022/08/21 09:48:22;;;;;;;10.15;3.33;;;;;;;31.48;38.74;100446.76;1794956;79;26677;-56
2022/08/21 09:50:51;;;;;;;10.48;4.60;;;;;;;31.29;39.29;100452.12;1794898;79;25520;-56
2022/08/21 09:53:24;;;;;;;7.75;3.52;;;;;;;31.15;39.75;100452.75;1795241;78;27571;-56
2022/08/21 09:58:51;;;;;;;6.45;3.08;;;;;;;30.94;40.81;100447.74;1794934;79;25779;-56
2022/08/21 10:01:23;;;;;;;7.70;2.72;;;;;;;30.91;40.36;100445.55;1794820;79;25736;-56
2022/08/21 10:04:02;;;;;;;9.03;3.97;;;;;;;31.38;40.47;100445.69;1795378;79;25736;-56
2022/08/21 10:06:31;;;;;;;13.45;3.27;;;;;;;31.64;40.05;100441.42;1794968;78;27462;-56
2022/08/21 10:09:15;;;;;;;7.92;3.50;;;;;;;31.70;39.69;100436.67;1794744;78;25759;-55
2022/08/21 10:11:47;;;;;;;8.33;3.37;;;;;;;31.72;39.46;100433.63;1794798;78;25774;-55
2022/08/21 10:14:22;;;;;;;7.53;3.15;;;;;;;31.60;39.37;100431.16;1793767;78;25787;-57
2022/08/21 10:17:04;;;;;;;13.88;3.08;;;;;;;31.49;39.59;100425.64;1793037;78;25435;-55
2022/08/21 10:20:11;;;;;;;9.45;3.37;;;;;;;31.36;40.05;100425.71;1799673;78;27686;-55
2022/08/21 10:22:53;;;;;;;10.03;3.35;;;;;;;31.32;40.70;100416.84;1767783;81;25739;-54
2022/08/21 10:25:28;;;;;;;9.50;3.08;;;;;;;31.28;40.62;100419.90;1784449;80;26592;-55
2022/08/21 10:28:15;;;;;;;7.53;3.10;;;;;;;31.14;39.86;100412.19;1786190;80;25910;-56
2022/08/21 10:30:53;;;;;;;5.90;3.50;;;;;;;31.06;40.25;100409.96;1785978;79;25649;-56
2022/08/21 10:33:40;;;;;;;10.40;2.98;;;;;;;31.06;40.47;100407.19;1787567;80;27465;-55
2022/08/21 10:36:14;;;;;;;11.03;3.58;;;;;;;31.31;39.69;100410.43;1790257;79;25824;-56
2022/08/21 10:39:05;;;;;;;9.43;3.00;;;;;;;32.39;39.12;100402.54;1799259;78;25794;-55
2022/08/21 10:42:03;;;;;;;15.98;3.40;;;;;;;33.00;37.67;100408.08;1799199;79;27928;-55
2022/08/21 10:44:47;;;;;;;9.90;3.27;;;;;;;33.68;37.05;100399.70;1799175;78;25738;-57
2022/08/21 10:47:34;;;;;;;8.88;3.02;;;;;;;34.75;33.81;100402.42;1799453;78;27332;-55
2022/08/21 10:50:32;;;;;;;6.05;2.67;;;;;;;34.93;34.29;100399.33;1799219;78;25711;-55
2022/08/21 10:53:13;;;;;;;14.70;2.80;;;;;;;35.36;34.04;100399.56;1732368;79;25871;-56
2022/08/21 10:55:48;;;;;;;5.70;2.55;;;;;;;35.92;32.71;100399.45;1799411;78;26578;-56
2022/08/21 10:58:27;;;;;;;11.38;2.92;;;;;;;36.71;32.45;100398.58;1799098;78;26245;-57
2022/08/21 11:01:20;;;;;;;7.65;3.17;;;;;;;36.75;31.68;100397.61;1798576;79;28461;-57
2022/08/21 11:04:20;;;;;;;8.90;2.77;;;;;;;36.93;31.55;100391.55;1799311;79;25687;-56
2022/08/21 11:06:52;;;;;;;7.55;2.45;;;;;;;36.92;30.69;100383.44;1799186;78;25661;-58
2022/08/21 11:09:24;;;;;;;9.73;2.77;;;;;;;36.79;30.62;100377.61;1799438;79;26649;-57
2022/08/21 11:11:56;;;;;;;9.38;2.87;;;;;;;36.80;30.14;100375.03;1800003;79;25774;-57
2022/08/21 11:14:43;;;;;;;6.65;2.60;;;;;;;37.47;30.07;100368.66;1799602;79;27640;-57
2022/08/21 11:17:19;;;;;;;5.65;2.30;;;;;;;38.34;28.36;100367.22;1797614;78;25296;-55
2022/08/21 11:20:09;;;;;;;2.60;2.25;;;;;;;38.90;27.74;100366.37;1784429;79;25252;-56
2022/08/21 11:23:00;;;;;;;8.95;2.77;;;;;;;39.25;27.42;100367.59;1775837;80;25797;-55
2022/08/21 11:25:44;;;;;;;9.28;2.37;;;;;;;39.90;27.39;100367.27;1794863;78;25774;-56
2022/08/21 11:28:24;;;;;;;6.80;2.70;;;;;;;40.53;26.14;100356.98;1798454;78;28425;-56
2022/08/21 11:31:04;;;;;;;8.73;2.80;;;;;;;40.93;26.17;100359.16;1799638;79;25695;-57
2022/08/21 11:34:11;;;;;;;9.18;2.47;;;;;;;41.42;25.68;100348.40;1797707;78;25762;-57
2022/08/21 11:37:07;;;;;;;18.92;2.95;;;;;;;41.99;24.19;100351.30;1784911;79;25724;-56
2022/08/21 11:40:00;;;;;;;6.67;2.30;;;;;;;42.41;24.49;100342.11;1794816;79;27356;-57
2022/08/21 11:42:56;;;;;;;7.78;2.30;;;;;;;42.87;23.35;100341.63;1794677;79;27470;-56